createdAt,value
2022-07-26T00:02:38.224Z,4183.1
2022-07-26T00:08:13.283Z,4182
2022-07-26T00:13:48.372Z,4184.3
2022-07-26T00:19:44.733Z,4179.6
2022-07-26T00:25:17.434Z,4180.5
2022-07-26T00:30:52.231Z,4181
2022-07-26T00:36:27.105Z,4180
2022-07-26T00:42:01.979Z,4179.5
2022-07-26T00:47:36.882Z,4179.5
2022-07-26T00:53:11.647Z,4179
2022-07-26T00:58:47.465Z,4181.8
2022-07-26T01:04:22.359Z,4178
2022-07-26T01:09:58.258Z,4178
2022-07-26T01:15:33.000Z,4178.3
2022-07-26T01:21:15.130Z,4177.6
2022-07-26T01:26:49.964Z,4179
2022-07-26T01:32:24.933Z,4177.1
2022-07-26T01:37:59.858Z,4177.5
2022-07-26T01:43:36.253Z,4178
2022-07-26T01:49:12.315Z,4176.6
2022-07-26T01:54:47.401Z,4177.5
2022-07-26T02:00:23.124Z,4178.6
2022-07-26T02:05:59.892Z,4179.3
2022-07-26T02:11:35.054Z,4176.3
2022-07-26T02:17:31.701Z,4174.3
2022-07-26T02:23:04.614Z,4175.4
2022-07-26T02:28:39.396Z,4173.9
2022-07-26T02:34:14.141Z,4175.8
2022-07-26T02:39:49.920Z,4176.9
2022-07-26T02:45:24.802Z,4177.6
2022-07-26T02:51:00.519Z,4176.3
2022-07-26T02:56:35.289Z,4175.1
2022-07-26T03:02:10.524Z,4173.9
2022-07-26T03:07:45.307Z,4173.6
2022-07-26T03:13:20.139Z,4174.8
2022-07-26T03:19:17.141Z,4170.2
2022-07-26T03:24:49.985Z,4171.9
2022-07-26T03:30:27.446Z,4171.3
2022-07-26T03:36:02.281Z,4172.6
2022-07-26T03:41:37.458Z,4170.7
2022-07-26T03:47:13.412Z,4172.8
2022-07-26T03:52:48.577Z,4173.4
2022-07-26T03:58:23.493Z,4170.9
2022-07-26T04:03:58.715Z,4170.2
2022-07-26T04:09:34.103Z,4170.7
2022-07-26T04:15:08.911Z,4169.9
2022-07-26T04:20:44.686Z,4171.9
2022-07-26T04:26:19.509Z,4172.4
2022-07-26T04:31:54.373Z,4169.2
2022-07-26T04:37:29.340Z,4168.2
2022-07-26T04:43:04.222Z,4169.2
2022-07-26T04:48:39.836Z,4168.1
2022-07-26T04:54:15.287Z,4169.2
2022-07-26T05:00:25.761Z,4171.1
2022-07-26T05:06:00.810Z,4165.4
2022-07-26T05:11:35.415Z,4169.7
2022-07-26T05:17:36.862Z,4164.7
2022-07-26T05:23:12.939Z,4165.9
2022-07-26T05:28:47.855Z,4166.9
2022-07-26T05:34:22.916Z,4168.7
2022-07-26T05:39:57.682Z,4166.7
2022-07-26T05:45:33.379Z,4165.1
2022-07-26T05:51:08.416Z,4167.9
2022-07-26T05:56:44.591Z,4168.1
2022-07-26T06:02:20.387Z,4169.2
2022-07-26T06:07:55.283Z,4169.4
2022-07-26T06:13:30.267Z,4172.4
2022-07-26T06:19:26.829Z,4167.4
2022-07-26T06:24:59.448Z,4167.6
2022-07-26T06:30:34.070Z,4166.2
2022-07-26T06:36:09.944Z,4167.6
2022-07-26T06:41:44.718Z,4174.4
2022-07-26T06:47:19.561Z,4172.9
2022-07-26T06:52:54.333Z,4172.1
2022-07-26T06:58:29.000Z,4165.2
2022-07-26T07:04:03.815Z,4173.9
2022-07-26T07:09:38.846Z,4174.8
2022-07-26T07:15:13.552Z,4172.8
2022-07-26T07:20:49.295Z,4178.8
2022-07-26T07:26:25.468Z,4180.1
2022-07-26T07:32:06.139Z,4176.6
2022-07-26T07:37:55.143Z,4183.3
2022-07-26T07:43:31.024Z,4189.2
2022-07-26T07:49:10.040Z,4190.5
2022-07-26T07:54:45.472Z,4197.2
2022-07-26T08:00:28.518Z,4194.9
2022-07-26T08:06:03.560Z,4196.4
2022-07-26T08:11:43.752Z,4198.4
2022-07-26T08:17:33.949Z,4203.7
2022-07-26T08:23:10.338Z,4218.7
2022-07-26T08:29:01.206Z,4208.3
2022-07-26T08:34:35.994Z,4186.7
2022-07-26T08:40:10.651Z,4189.8
2022-07-26T08:45:45.317Z,4188.8
2022-07-26T08:51:19.970Z,4191
2022-07-26T08:56:54.869Z,4195.9
2022-07-26T09:02:29.716Z,4197.2
2022-07-26T09:08:05.766Z,4207.4
2022-07-26T09:13:40.550Z,4208.3
2022-07-26T09:19:37.082Z,4222.2
2022-07-26T09:25:09.950Z,4218.8
2022-07-26T09:30:47.692Z,4221.8
2022-07-26T09:36:22.636Z,4212.1
2022-07-26T09:42:30.625Z,4214.6
2022-07-26T09:48:05.874Z,4214.5
2022-07-26T09:53:42.966Z,4213.1
2022-07-26T09:59:19.049Z,4217.5
2022-07-26T10:04:54.206Z,4221.7
2022-07-26T10:10:30.021Z,4226.9
2022-07-26T10:16:29.942Z,4220.2
2022-07-26T10:22:05.299Z,4223.3
2022-07-26T10:27:41.257Z,4226.9
2022-07-26T10:33:16.549Z,4216.5
2022-07-26T10:38:51.328Z,4205.8
2022-07-26T10:44:26.862Z,4201.9
2022-07-26T10:50:02.735Z,4213.1
2022-07-26T10:55:37.882Z,4213
2022-07-26T11:01:13.696Z,4219
2022-07-26T11:06:48.696Z,4221.5
2022-07-26T11:12:23.667Z,4228.2
2022-07-26T11:18:20.237Z,4224.5
2022-07-26T11:23:53.228Z,4223.2
2022-07-26T11:29:51.967Z,4216.3
2022-07-26T11:35:31.458Z,4217.1
2022-07-26T11:41:07.468Z,4227.7
2022-07-26T11:46:44.267Z,4219.8
2022-07-26T11:52:26.816Z,4220.8
2022-07-26T11:58:01.710Z,4215.6
2022-07-26T12:03:37.396Z,4221.2
2022-07-26T12:09:13.414Z,4226.5
2022-07-26T12:14:48.596Z,4229
2022-07-26T12:20:23.750Z,4226.4
2022-07-26T12:25:59.606Z,4221.7
2022-07-26T12:31:36.020Z,4225.2
2022-07-26T12:37:11.783Z,4220
2022-07-26T12:42:47.857Z,4224
2022-07-26T12:48:22.482Z,4220.7
2022-07-26T12:53:57.421Z,4221.5
2022-07-26T12:59:32.355Z,4222.5
2022-07-26T13:05:08.802Z,4220.7
2022-07-26T13:10:43.688Z,4212
2022-07-26T13:16:20.947Z,4223
2022-07-26T13:21:56.054Z,4220.8
2022-07-26T13:27:45.695Z,4212.1
2022-07-26T13:33:20.541Z,4224.4
2022-07-26T13:38:55.391Z,4215.6
2022-07-26T13:44:30.059Z,4223.5
2022-07-26T13:50:08.669Z,4217
2022-07-26T13:55:43.602Z,4225.7
2022-07-26T14:01:19.454Z,4216.6
2022-07-26T14:06:54.541Z,4219.5
2022-07-26T14:12:29.339Z,4224.5
2022-07-26T14:18:25.818Z,4228.4
2022-07-26T14:23:59.679Z,4218
2022-07-26T14:29:34.534Z,4219.2
2022-07-26T14:35:15.422Z,4221.7
2022-07-26T14:40:50.468Z,4221.7
2022-07-26T14:46:26.231Z,4227.4
2022-07-26T14:52:09.578Z,4223.2
2022-07-26T14:57:44.404Z,4220.3
2022-07-26T15:03:19.256Z,4227.5
2022-07-26T15:08:54.019Z,4218
2022-07-26T15:14:28.881Z,4222.3
2022-07-26T15:20:03.609Z,4222.7
2022-07-26T15:25:38.433Z,4218.5
2022-07-26T15:31:14.580Z,4225.2
2022-07-26T15:36:49.499Z,4214.8
2022-07-26T15:42:26.242Z,4224.4
2022-07-26T15:48:23.394Z,4226.4
2022-07-26T15:53:58.515Z,4221.7
2022-07-26T15:59:33.605Z,4221.5
2022-07-26T16:05:08.416Z,4219.3
2022-07-26T16:10:43.210Z,4213.1
2022-07-26T16:16:19.191Z,4219.8
2022-07-26T16:21:54.308Z,4215.6
2022-07-26T16:27:29.142Z,4214.6
2022-07-26T16:33:04.034Z,4209.4
2022-07-26T16:38:38.865Z,4220
2022-07-26T16:44:13.848Z,4220.3
2022-07-26T16:49:48.505Z,4215
2022-07-26T16:55:23.360Z,4214.8
2022-07-26T17:00:59.283Z,4215.5
2022-07-26T17:06:34.221Z,4217.1
2022-07-26T17:12:09.802Z,4218.7
2022-07-26T17:17:49.925Z,4208.1
2022-07-26T17:23:24.598Z,4209.4
2022-07-26T17:28:59.538Z,4207.3
2022-07-26T17:34:34.419Z,4214.6
2022-07-26T17:40:09.821Z,4209.1
2022-07-26T17:45:44.834Z,4205.6
2022-07-26T17:51:19.530Z,4205.4
2022-07-26T17:56:54.357Z,4204.4
2022-07-26T18:02:29.158Z,4206.1
2022-07-26T18:08:07.288Z,4203.2
2022-07-26T18:13:42.278Z,4202.1
2022-07-26T18:19:38.810Z,4201.6
2022-07-26T18:25:12.432Z,4204.4
2022-07-26T18:30:47.375Z,4202.7
2022-07-26T18:36:22.389Z,4201.1
2022-07-26T18:41:57.092Z,4199.1
2022-07-26T18:47:31.967Z,4198.4
2022-07-26T18:53:07.584Z,4198.4
2022-07-26T18:58:42.593Z,4198.7
2022-07-26T19:04:23.112Z,4200.1
2022-07-26T19:09:59.853Z,4198.6
2022-07-26T19:15:36.179Z,4196.9
2022-07-26T19:21:12.007Z,4197.4
2022-07-26T19:26:46.778Z,4195.9
2022-07-26T19:32:21.838Z,4196
2022-07-26T19:37:56.785Z,4192.2
2022-07-26T19:43:31.641Z,4191.9
2022-07-26T19:49:09.361Z,4192.9
2022-07-26T19:54:44.458Z,4193.5
2022-07-26T20:00:19.156Z,4192.7
2022-07-26T20:05:55.210Z,4192.7
2022-07-26T20:11:29.860Z,4189.8
2022-07-26T20:17:27.945Z,4187.2
2022-07-26T20:23:02.776Z,4189
2022-07-26T20:28:37.851Z,4190.5
2022-07-26T20:34:12.774Z,4190.3
2022-07-26T20:39:51.625Z,4186.8
2022-07-26T20:45:27.392Z,4188.2
2022-07-26T20:51:02.294Z,4190
2022-07-26T20:56:37.078Z,4187.7
2022-07-26T21:02:12.804Z,4189.3
2022-07-26T21:08:01.283Z,4184
2022-07-26T21:13:36.414Z,4187.8
2022-07-26T21:19:33.047Z,4183
2022-07-26T21:25:05.723Z,4187.7
2022-07-26T21:30:43.317Z,4185
2022-07-26T21:36:19.259Z,4187.5
2022-07-26T21:41:55.053Z,4186
2022-07-26T21:47:30.858Z,4186.5
2022-07-26T21:53:07.140Z,4186.5
2022-07-26T21:58:42.077Z,4180.3
2022-07-26T22:04:16.936Z,4183.3
2022-07-26T22:09:51.819Z,4184.3
2022-07-26T22:15:30.211Z,4184.5
2022-07-26T22:21:05.579Z,4183.3
2022-07-26T22:26:40.393Z,4181.3
2022-07-26T22:32:16.485Z,4183.6
2022-07-26T22:37:57.098Z,4182.5
2022-07-26T22:43:31.774Z,4180.1
2022-07-26T22:49:17.295Z,4181
2022-07-26T22:54:53.423Z,4183.5
2022-07-26T23:00:28.494Z,4178.6
2022-07-26T23:06:03.657Z,4179.1
2022-07-26T23:11:41.216Z,4185.3
2022-07-26T23:17:38.666Z,4177.8
2022-07-26T23:23:13.393Z,4181.5
2022-07-26T23:28:48.228Z,4179.3
2022-07-26T23:34:23.107Z,4178.8
2022-07-26T23:39:57.907Z,4179
2022-07-26T23:45:32.661Z,4178
2022-07-26T23:51:07.920Z,4178.5
2022-07-26T23:56:44.084Z,4180
